sensor_id;sensor_type;location;lat;lon;timestamp;pressure;altitude;pressure_sealevel;temperature;humidity
14273;BME280;7220;49.450;11.052;2023-12-14T00:00:35;97025.44;;;7.81;100.00
14273;BME280;7220;49.450;11.052;2023-12-14T00:04:36;97034.91;;;7.85;100.00
14273;BME280;7220;49.450;11.052;2023-12-14T00:08:36;97049.25;;;7.81;100.00
14273;BME280;7220;49.450;11.052;2023-12-14T00:12:37;97050.78;;;7.85;100.00
14273;BME280;7220;49.450;11.052;2023-12-14T00:16:37;97057.75;;;7.86;100.00
14273;BME280;7220;49.450;11.052;2023-12-14T00:20:37;97051.72;;;7.84;100.00
14273;BME280;7220;49.450;11.052;2023-12-14T00:24:38;97057.00;;;7.84;100.00
14273;BME280;7220;49.450;11.052;2023-12-14T00:28:38;97069.38;;;7.83;100.00
14273;BME280;7220;49.450;11.052;2023-12-14T00:32:38;97065.13;;;7.81;100.00
14273;BME280;7220;49.450;11.052;2023-12-14T00:36:39;97066.81;;;7.82;100.00
14273;BME280;7220;49.450;11.052;2023-12-14T00:40:39;97085.34;;;7.82;100.00
14273;BME280;7220;49.450;11.052;2023-12-14T00:44:40;97088.00;;;7.82;100.00
14273;BME280;7220;49.450;11.052;2023-12-14T00:48:40;97088.00;;;7.82;100.00
14273;BME280;7220;49.450;11.052;2023-12-14T00:52:40;97096.97;;;7.79;100.00
14273;BME280;7220;49.450;11.052;2023-12-14T00:56:41;97098.06;;;7.75;100.00
14273;BME280;7220;49.450;11.052;2023-12-14T01:00:41;97101.59;;;7.76;100.00
14273;BME280;7220;49.450;11.052;2023-12-14T01:04:42;97110.19;;;7.79;100.00
14273;BME280;7220;49.450;11.052;2023-12-14T01:08:42;97116.50;;;7.77;100.00
14273;BME280;7220;49.450;11.052;2023-12-14T01:12:43;97127.16;;;7.75;100.00
14273;BME280;7220;49.450;11.052;2023-12-14T01:16:43;97135.97;;;7.76;100.00
14273;BME280;7220;49.450;11.052;2023-12-14T01:20:43;97151.22;;;7.70;100.00
14273;BME280;7220;49.450;11.052;2023-12-14T01:24:44;97144.44;;;7.66;100.00
14273;BME280;7220;49.450;11.052;2023-12-14T01:28:44;97156.53;;;7.70;100.00
14273;BME280;7220;49.450;11.052;2023-12-14T01:32:45;97160.88;;;7.71;100.00
14273;BME280;7220;49.450;11.052;2023-12-14T01:36:45;97151.50;;;7.66;100.00
14273;BME280;7220;49.450;11.052;2023-12-14T01:40:45;97156.88;;;7.64;100.00
14273;BME280;7220;49.450;11.052;2023-12-14T01:44:46;97163.13;;;7.63;100.00
14273;BME280;7220;49.450;11.052;2023-12-14T01:48:46;97180.69;;;7.64;100.00
14273;BME280;7220;49.450;11.052;2023-12-14T01:52:46;97170.97;;;7.65;100.00
14273;BME280;7220;49.450;11.052;2023-12-14T01:56:47;97180.69;;;7.64;100.00
14273;BME280;7220;49.450;11.052;2023-12-14T02:05:00;97196.56;;;7.64;100.00
14273;BME280;7220;49.450;11.052;2023-12-14T02:09:01;97201.84;;;7.64;100.00
14273;BME280;7220;49.450;11.052;2023-12-14T02:13:02;97203.56;;;7.65;100.00
14273;BME280;7220;49.450;11.052;2023-12-14T02:17:02;97207.28;;;7.61;100.00
14273;BME280;7220;49.450;11.052;2023-12-14T02:21:03;97223.16;;;7.61;100.00
14273;BME280;7220;49.450;11.052;2023-12-14T02:25:04;97219.59;;;7.62;100.00
14273;BME280;7220;49.450;11.052;2023-12-14T02:29:04;97216.19;;;7.60;100.00
14273;BME280;7220;49.450;11.052;2023-12-14T02:33:05;97216.09;;;7.62;100.00
14273;BME280;7220;49.450;11.052;2023-12-14T02:37:05;97217.97;;;7.60;100.00
14273;BME280;7220;49.450;11.052;2023-12-14T02:41:06;97226.94;;;7.57;100.00
14273;BME280;7220;49.450;11.052;2023-12-14T02:45:07;97234.09;;;7.55;100.00
14273;BME280;7220;49.450;11.052;2023-12-14T02:49:08;97235.03;;;7.54;100.00
14273;BME280;7220;49.450;11.052;2023-12-14T02:53:08;97249.97;;;7.55;100.00
14273;BME280;7220;49.450;11.052;2023-12-14T02:57:09;97253.53;;;7.54;100.00
14273;BME280;7220;49.450;11.052;2023-12-14T03:01:09;97258.81;;;7.54;100.00
14273;BME280;7220;49.450;11.052;2023-12-14T03:05:10;97268.03;;;7.47;100.00
14273;BME280;7220;49.450;11.052;2023-12-14T03:09:10;97274.94;;;7.49;100.00
14273;BME280;7220;49.450;11.052;2023-12-14T03:13:10;97270.44;;;7.51;100.00
14273;BME280;7220;49.450;11.052;2023-12-14T03:17:11;97272.13;;;7.52;100.00
14273;BME280;7220;49.450;11.052;2023-12-14T03:21:13;97293.28;;;7.52;100.00
14273;BME280;7220;49.450;11.052;2023-12-14T03:25:13;97289.72;;;7.53;100.00
14273;BME280;7220;49.450;11.052;2023-12-14T03:29:13;97294.16;;;7.53;100.00
14273;BME280;7220;49.450;11.052;2023-12-14T03:33:14;97302.84;;;7.55;100.00
14273;BME280;7220;49.450;11.052;2023-12-14T03:37:14;97315.03;;;7.57;100.00
14273;BME280;7220;49.450;11.052;2023-12-14T03:41:14;97315.13;;;7.56;100.00
14273;BME280;7220;49.450;11.052;2023-12-14T03:45:15;97318.53;;;7.58;100.00
14273;BME280;7220;49.450;11.052;2023-12-14T03:49:15;97323.84;;;7.58;100.00
14273;BME280;7220;49.450;11.052;2023-12-14T03:53:15;97336.28;;;7.56;100.00
14273;BME280;7220;49.450;11.052;2023-12-14T03:57:16;97334.56;;;7.55;100.00
14273;BME280;7220;49.450;11.052;2023-12-14T04:01:20;97347.78;;;7.55;100.00
14273;BME280;7220;49.450;11.052;2023-12-14T04:05:21;97363.66;;;7.55;100.00
14273;BME280;7220;49.450;11.052;2023-12-14T04:09:21;97364.59;;;7.54;100.00
14273;BME280;7220;49.450;11.052;2023-12-14T04:13:22;97369.88;;;7.54;100.00
14273;BME280;7220;49.450;11.052;2023-12-14T04:17:22;97371.78;;;7.52;100.00
14273;BME280;7220;49.450;11.052;2023-12-14T04:21:23;97374.47;;;7.50;100.00
14273;BME280;7220;49.450;11.052;2023-12-14T04:25:23;97382.41;;;7.50;100.00
14273;BME280;7220;49.450;11.052;2023-12-14T04:29:23;97388.56;;;7.51;100.00
14273;BME280;7220;49.450;11.052;2023-12-14T04:33:24;97396.50;;;7.51;100.00
14273;BME280;7220;49.450;11.052;2023-12-14T04:37:24;97404.81;;;7.43;100.00
14273;BME280;7220;49.450;11.052;2023-12-14T04:41:24;97414.22;;;7.49;100.00
14273;BME280;7220;49.450;11.052;2023-12-14T04:45:25;97417.88;;;7.46;100.00
14273;BME280;7220;49.450;11.052;2023-12-14T04:49:25;97410.91;;;7.45;100.00
14273;BME280;7220;49.450;11.052;2023-12-14T04:53:25;97424.34;;;7.40;100.00
14273;BME280;7220;49.450;11.052;2023-12-14T04:57:26;97432.13;;;7.44;100.00
14273;BME280;7220;49.450;11.052;2023-12-14T05:01:26;97433.06;;;7.42;100.00
14273;BME280;7220;49.450;11.052;2023-12-14T05:05:27;97450.69;;;7.42;100.00
14273;BME280;7220;49.450;11.052;2023-12-14T05:09:27;97443.72;;;7.41;100.00
14273;BME280;7220;49.450;11.052;2023-12-14T05:13:28;97466.66;;;7.40;100.00
14273;BME280;7220;49.450;11.052;2023-12-14T05:17:28;97450.00;;;7.38;100.00
14273;BME280;7220;49.450;11.052;2023-12-14T05:21:29;97460.56;;;7.38;100.00
14273;BME280;7220;49.450;11.052;2023-12-14T05:25:29;97464.25;;;7.36;100.00
14273;BME280;7220;49.450;11.052;2023-12-14T05:29:29;97475.59;;;7.38;100.00
14273;BME280;7220;49.450;11.052;2023-12-14T05:33:30;97483.53;;;7.38;100.00
14273;BME280;7220;49.450;11.052;2023-12-14T05:37:31;97494.19;;;7.36;100.00
14273;BME280;7220;49.450;11.052;2023-12-14T05:41:31;97491.69;;;7.33;100.00
14273;BME280;7220;49.450;11.052;2023-12-14T05:45:32;97503.19;;;7.32;100.00
14273;BME280;7220;49.450;11.052;2023-12-14T05:49:32;97512.06;;;7.31;100.00
14273;BME280;7220;49.450;11.052;2023-12-14T05:53:32;97511.28;;;7.29;100.00
14273;BME280;7220;49.450;11.052;2023-12-14T05:57:36;97525.50;;;7.26;100.00
14273;BME280;7220;49.450;11.052;2023-12-14T06:01:37;97530.78;;;7.26;100.00
14273;BME280;7220;49.450;11.052;2023-12-14T06:05:37;97546.66;;;7.26;100.00
14273;BME280;7220;49.450;11.052;2023-12-14T06:09:39;97552.34;;;7.19;100.00
14273;BME280;7220;49.450;11.052;2023-12-14T06:13:39;97560.88;;;7.24;100.00
14273;BME280;7220;49.450;11.052;2023-12-14T06:17:40;97562.69;;;7.23;100.00
14273;BME280;7220;49.450;11.052;2023-12-14T06:21:42;97566.94;;;7.26;100.00
14273;BME280;7220;49.450;11.052;2023-12-14T06:25:42;97566.16;;;7.24;100.00
14273;BME280;7220;49.450;11.052;2023-12-14T06:29:43;97571.78;;;7.18;100.00
14273;BME280;7220;49.450;11.052;2023-12-14T06:33:43;97575.34;;;7.17;100.00
14273;BME280;7220;49.450;11.052;2023-12-14T06:37:44;97576.97;;;7.19;100.00
14273;BME280;7220;49.450;11.052;2023-12-14T06:41:44;97589.13;;;7.23;100.00
14273;BME280;7220;49.450;11.052;2023-12-14T06:45:45;97592.81;;;7.19;100.00
14273;BME280;7220;49.450;11.052;2023-12-14T06:49:45;97601.41;;;7.24;100.00
14273;BME280;7220;49.450;11.052;2023-12-14T06:53:45;97609.38;;;7.23;100.00
14273;BME280;7220;49.450;11.052;2023-12-14T06:57:48;97625.94;;;7.26;100.00
14273;BME280;7220;49.450;11.052;2023-12-14T07:01:49;97640.94;;;7.26;100.00
14273;BME280;7220;49.450;11.052;2023-12-14T07:05:49;97653.25;;;7.27;100.00
14273;BME280;7220;49.450;11.052;2023-12-14T07:09:49;97665.09;;;7.18;100.00
14273;BME280;7220;49.450;11.052;2023-12-14T07:13:50;97668.63;;;7.19;100.00
14273;BME280;7220;49.450;11.052;2023-12-14T07:17:50;97674.69;;;7.21;100.00
14273;BME280;7220;49.450;11.052;2023-12-14T07:21:51;97677.16;;;7.24;100.00
14273;BME280;7220;49.450;11.052;2023-12-14T07:25:51;97688.84;;;7.20;100.00
14273;BME280;7220;49.450;11.052;2023-12-14T07:29:51;97701.16;;;7.19;100.00
14273;BME280;7220;49.450;11.052;2023-12-14T07:33:52;97706.31;;;7.22;100.00
14273;BME280;7220;49.450;11.052;2023-12-14T07:37:52;97705.66;;;7.17;100.00
14273;BME280;7220;49.450;11.052;2023-12-14T07:41:52;97712.13;;;7.12;100.00
14273;BME280;7220;49.450;11.052;2023-12-14T07:45:53;97718.13;;;7.15;100.00
14273;BME280;7220;49.450;11.052;2023-12-14T07:49:53;97710.72;;;7.04;100.00
14273;BME280;7220;49.450;11.052;2023-12-14T07:53:54;97720.06;;;7.12;100.00
14273;BME280;7220;49.450;11.052;2023-12-14T07:57:55;97727.97;;;7.12;100.00
14273;BME280;7220;49.450;11.052;2023-12-14T08:01:56;97731.25;;;7.17;100.00
14273;BME280;7220;49.450;11.052;2023-12-14T08:05:57;97730.13;;;7.03;100.00
14273;BME280;7220;49.450;11.052;2023-12-14T08:09:57;97739.38;;;7.12;100.00
14273;BME280;7220;49.450;11.052;2023-12-14T08:13:58;97739.81;;;7.22;100.00
14273;BME280;7220;49.450;11.052;2023-12-14T08:17:58;97759.88;;;7.26;100.00
14273;BME280;7220;49.450;11.052;2023-12-14T08:21:59;97766.00;;;7.26;100.00
14273;BME280;7220;49.450;11.052;2023-12-14T08:26:00;97776.38;;;7.31;100.00
14273;BME280;7220;49.450;11.052;2023-12-14T08:30:00;97766.50;;;7.35;100.00
14273;BME280;7220;49.450;11.052;2023-12-14T08:34:00;97784.97;;;7.36;100.00
14273;BME280;7220;49.450;11.052;2023-12-14T08:38:01;97793.94;;;7.32;100.00
14273;BME280;7220;49.450;11.052;2023-12-14T08:42:01;97805.09;;;7.39;100.00
14273;BME280;7220;49.450;11.052;2023-12-14T08:46:02;97815.59;;;7.40;100.00
14273;BME280;7220;49.450;11.052;2023-12-14T08:50:02;97817.19;;;7.45;100.00
14273;BME280;7220;49.450;11.052;2023-12-14T08:54:03;97817.72;;;7.51;100.00
14273;BME280;7220;49.450;11.052;2023-12-14T08:58:04;97816.81;;;7.52;100.00
14273;BME280;7220;49.450;11.052;2023-12-14T09:02:04;97836.94;;;7.55;100.00
14273;BME280;7220;49.450;11.052;2023-12-14T09:06:05;97838.53;;;7.59;100.00
14273;BME280;7220;49.450;11.052;2023-12-14T09:10:06;97836.03;;;7.56;100.00
14273;BME280;7220;49.450;11.052;2023-12-14T09:14:06;97853.53;;;7.58;100.00
14273;BME280;7220;49.450;11.052;2023-12-14T09:18:07;97855.97;;;7.63;100.00
14273;BME280;7220;49.450;11.052;2023-12-14T09:22:07;97872.00;;;7.60;100.00
14273;BME280;7220;49.450;11.052;2023-12-14T09:26:08;97884.41;;;7.58;100.00
14273;BME280;7220;49.450;11.052;2023-12-14T09:30:08;97888.56;;;7.64;100.00
14273;BME280;7220;49.450;11.052;2023-12-14T09:34:12;97883.81;;;7.70;100.00
14273;BME280;7220;49.450;11.052;2023-12-14T09:38:13;97883.81;;;7.70;100.00
14273;BME280;7220;49.450;11.052;2023-12-14T09:42:18;97897.50;;;7.80;100.00
14273;BME280;7220;49.450;11.052;2023-12-14T09:46:21;97901.28;;;7.74;100.00
14273;BME280;7220;49.450;11.052;2023-12-14T09:50:23;97903.28;;;7.88;100.00
14273;BME280;7220;49.450;11.052;2023-12-14T09:54:25;97916.44;;;7.90;100.00
14273;BME280;7220;49.450;11.052;2023-12-14T09:58:26;97918.78;;;7.96;100.00
14273;BME280;7220;49.450;11.052;2023-12-14T10:02:27;97914.28;;;7.98;100.00
14273;BME280;7220;49.450;11.052;2023-12-14T10:06:28;97913.19;;;8.02;100.00
14273;BME280;7220;49.450;11.052;2023-12-14T10:10:28;97938.59;;;8.07;100.00
14273;BME280;7220;49.450;11.052;2023-12-14T10:14:29;97927.84;;;8.10;100.00
14273;BME280;7220;49.450;11.052;2023-12-14T10:18:31;97920.38;;;8.18;100.00
14273;BME280;7220;49.450;11.052;2023-12-14T10:22:34;97929.78;;;8.25;100.00
14273;BME280;7220;49.450;11.052;2023-12-14T10:26:37;97931.47;;;8.26;100.00
14273;BME280;7220;49.450;11.052;2023-12-14T10:30:37;97932.16;;;8.30;100.00
14273;BME280;7220;49.450;11.052;2023-12-14T10:34:38;97939.84;;;8.36;100.00
14273;BME280;7220;49.450;11.052;2023-12-14T10:38:43;97942.09;;;8.44;100.00
14273;BME280;7220;49.450;11.052;2023-12-14T10:42:44;97936.69;;;8.47;100.00
14273;BME280;7220;49.450;11.052;2023-12-14T10:46:48;97939.97;;;8.52;100.00
14273;BME280;7220;49.450;11.052;2023-12-14T10:50:49;97945.91;;;8.57;100.00
14273;BME280;7220;49.450;11.052;2023-12-14T10:54:56;97939.38;;;8.64;100.00
14273;BME280;7220;49.450;11.052;2023-12-14T10:58:58;97963.66;;;8.55;100.00
14273;BME280;7220;49.450;11.052;2023-12-14T11:03:00;97955.41;;;8.61;100.00
14273;BME280;7220;49.450;11.052;2023-12-14T11:07:00;97958.22;;;8.76;100.00
14273;BME280;7220;49.450;11.052;2023-12-14T11:11:04;97970.22;;;8.83;100.00
14273;BME280;7220;49.450;11.052;2023-12-14T11:15:11;97973.50;;;8.88;100.00
14273;BME280;7220;49.450;11.052;2023-12-14T11:19:38;97985.19;;;8.84;100.00
14273;BME280;7220;49.450;11.052;2023-12-14T11:23:39;97990.94;;;8.92;100.00
14273;BME280;7220;49.450;11.052;2023-12-14T11:27:43;98005.13;;;8.91;100.00
14273;BME280;7220;49.450;11.052;2023-12-14T11:31:46;97999.34;;;8.83;100.00
14273;BME280;7220;49.450;11.052;2023-12-14T11:35:46;98000.75;;;8.90;100.00
14273;BME280;7220;49.450;11.052;2023-12-14T11:39:49;98004.28;;;8.91;100.00
14273;BME280;7220;49.450;11.052;2023-12-14T11:43:49;98007.72;;;8.93;100.00
14273;BME280;7220;49.450;11.052;2023-12-14T11:47:50;98015.59;;;8.94;100.00
14273;BME280;7220;49.450;11.052;2023-12-14T11:51:51;98013.78;;;8.95;100.00
14273;BME280;7220;49.450;11.052;2023-12-14T11:55:53;98020.59;;;9.00;100.00
14273;BME280;7220;49.450;11.052;2023-12-14T11:59:53;98008.91;;;9.05;100.00
14273;BME280;7220;49.450;11.052;2023-12-14T12:03:54;98023.38;;;9.15;100.00
14273;BME280;7220;49.450;11.052;2023-12-14T12:07:57;98011.63;;;9.21;100.00
14273;BME280;7220;49.450;11.052;2023-12-14T12:11:57;98022.06;;;9.24;100.00
14273;BME280;7220;49.450;11.052;2023-12-14T12:15:58;98014.88;;;9.26;100.00
14273;BME280;7220;49.450;11.052;2023-12-14T12:19:58;98024.63;;;9.25;100.00
14273;BME280;7220;49.450;11.052;2023-12-14T12:23:58;98014.97;;;9.24;100.00
14273;BME280;7220;49.450;11.052;2023-12-14T12:28:00;98020.88;;;9.29;100.00
14273;BME280;7220;49.450;11.052;2023-12-14T12:32:01;98024.63;;;9.25;100.00
14273;BME280;7220;49.450;11.052;2023-12-14T12:36:01;98026.38;;;9.26;100.00
14273;BME280;7220;49.450;11.052;2023-12-14T12:40:02;98041.00;;;9.16;100.00
14273;BME280;7220;49.450;11.052;2023-12-14T12:44:07;98042.81;;;9.15;100.00
14273;BME280;7220;49.450;11.052;2023-12-14T12:48:09;98049.38;;;9.08;100.00
14273;BME280;7220;49.450;11.052;2023-12-14T12:52:10;98035.00;;;9.12;100.00
14273;BME280;7220;49.450;11.052;2023-12-14T12:56:11;98047.88;;;9.03;100.00
14273;BME280;7220;49.450;11.052;2023-12-14T13:00:11;98048.66;;;9.05;100.00
14273;BME280;7220;49.450;11.052;2023-12-14T13:04:19;98054.09;;;9.02;100.00
14273;BME280;7220;49.450;11.052;2023-12-14T13:08:20;98056.13;;;8.96;100.00
14273;BME280;7220;49.450;11.052;2023-12-14T13:12:22;98065.78;;;8.97;100.00
14273;BME280;7220;49.450;11.052;2023-12-14T13:16:23;98068.59;;;8.94;100.00
14273;BME280;7220;49.450;11.052;2023-12-14T13:20:23;98079.34;;;8.91;100.00
14273;BME280;7220;49.450;11.052;2023-12-14T13:24:24;98081.22;;;8.89;100.00
14273;BME280;7220;49.450;11.052;2023-12-14T13:28:24;98085.66;;;8.89;100.00
14273;BME280;7220;49.450;11.052;2023-12-14T13:32:25;98092.09;;;8.83;100.00
14273;BME280;7220;49.450;11.052;2023-12-14T13:36:25;98100.28;;;8.78;100.00
14273;BME280;7220;49.450;11.052;2023-12-14T13:40:26;98103.31;;;8.71;100.00
14273;BME280;7220;49.450;11.052;2023-12-14T13:44:26;98112.31;;;8.66;100.00
14273;BME280;7220;49.450;11.052;2023-12-14T13:48:27;98118.78;;;8.61;100.00
14273;BME280;7220;49.450;11.052;2023-12-14T13:52:28;98129.72;;;8.53;100.00
14273;BME280;7220;49.450;11.052;2023-12-14T13:56:28;98140.63;;;8.45;100.00
14273;BME280;7220;49.450;11.052;2023-12-14T14:00:29;98155.16;;;8.36;100.00
14273;BME280;7220;49.450;11.052;2023-12-14T14:04:29;98156.38;;;8.29;100.00
14273;BME280;7220;49.450;11.052;2023-12-14T14:08:30;98165.44;;;8.24;100.00
14273;BME280;7220;49.450;11.052;2023-12-14T14:12:31;98171.22;;;8.13;100.00
14273;BME280;7220;49.450;11.052;2023-12-14T14:16:32;98168.78;;;8.08;100.00
14273;BME280;7220;49.450;11.052;2023-12-14T14:20:32;98178.75;;;8.01;100.00
14273;BME280;7220;49.450;11.052;2023-12-14T14:24:33;98181.63;;;7.97;100.00
14273;BME280;7220;49.450;11.052;2023-12-14T14:28:33;98195.72;;;7.97;100.00
14273;BME280;7220;49.450;11.052;2023-12-14T14:32:33;98201.06;;;7.96;100.00
14273;BME280;7220;49.450;11.052;2023-12-14T14:36:37;98215.22;;;7.95;100.00
14273;BME280;7220;49.450;11.052;2023-12-14T14:40:37;98223.63;;;7.84;100.00
14273;BME280;7220;49.450;11.052;2023-12-14T14:44:39;98230.38;;;7.91;100.00
14273;BME280;7220;49.450;11.052;2023-12-14T14:48:39;98229.66;;;7.87;100.00
14273;BME280;7220;49.450;11.052;2023-12-14T14:52:40;98241.22;;;7.85;100.00
14273;BME280;7220;49.450;11.052;2023-12-14T14:56:40;98243.06;;;7.83;100.00
14273;BME280;7220;49.450;11.052;2023-12-14T15:00:41;98251.81;;;7.85;100.00
14273;BME280;7220;49.450;11.052;2023-12-14T15:04:41;98255.31;;;7.85;100.00
14273;BME280;7220;49.450;11.052;2023-12-14T15:08:42;98265.97;;;7.84;100.00
14273;BME280;7220;49.450;11.052;2023-12-14T15:12:42;98267.13;;;7.77;100.00
14273;BME280;7220;49.450;11.052;2023-12-14T15:16:42;98278.13;;;7.88;100.00
14273;BME280;7220;49.450;11.052;2023-12-14T15:20:43;98289.63;;;7.87;100.00
14273;BME280;7220;49.450;11.052;2023-12-14T15:24:43;98290.53;;;7.86;100.00
14273;BME280;7220;49.450;11.052;2023-12-14T15:28:43;98298.56;;;7.84;100.00
14273;BME280;7220;49.450;11.052;2023-12-14T15:32:44;98307.22;;;7.88;100.00
14273;BME280;7220;49.450;11.052;2023-12-14T15:36:44;98312.59;;;7.86;100.00
14273;BME280;7220;49.450;11.052;2023-12-14T15:40:44;98311.69;;;7.87;100.00
14273;BME280;7220;49.450;11.052;2023-12-14T15:44:45;98331.97;;;7.87;100.00
14273;BME280;7220;49.450;11.052;2023-12-14T15:48:45;98332.78;;;7.89;100.00
14273;BME280;7220;49.450;11.052;2023-12-14T15:52:46;98338.06;;;7.89;100.00
14273;BME280;7220;49.450;11.052;2023-12-14T15:56:47;98354.78;;;7.89;100.00
14273;BME280;7220;49.450;11.052;2023-12-14T16:00:47;98370.56;;;7.93;100.00
14273;BME280;7220;49.450;11.052;2023-12-14T16:04:47;98373.28;;;7.91;100.00
14273;BME280;7220;49.450;11.052;2023-12-14T16:08:48;98375.00;;;7.92;100.00
14273;BME280;7220;49.450;11.052;2023-12-14T16:12:48;98380.31;;;7.90;100.00
14273;BME280;7220;49.450;11.052;2023-12-14T16:16:51;98388.22;;;7.92;100.00
14273;BME280;7220;49.450;11.052;2023-12-14T16:20:51;98390.88;;;7.92;100.00
14273;BME280;7220;49.450;11.052;2023-12-14T16:24:51;98398.06;;;7.88;100.00
14273;BME280;7220;49.450;11.052;2023-12-14T16:28:52;98404.41;;;7.84;100.00
14273;BME280;7220;49.450;11.052;2023-12-14T16:32:52;98414.91;;;7.86;100.00
14273;BME280;7220;49.450;11.052;2023-12-14T16:36:54;98413.25;;;7.83;100.00
14273;BME280;7220;49.450;11.052;2023-12-14T16:40:55;98420.38;;;7.81;100.00
14273;BME280;7220;49.450;11.052;2023-12-14T16:44:55;98424.25;;;7.72;100.00
14273;BME280;7220;49.450;11.052;2023-12-14T16:48:55;98416.06;;;7.79;100.00
14273;BME280;7220;49.450;11.052;2023-12-14T16:52:56;98440.69;;;7.81;100.00
14273;BME280;7220;49.450;11.052;2023-12-14T16:56:56;98444.25;;;7.80;100.00
14273;BME280;7220;49.450;11.052;2023-12-14T17:00:56;98457.56;;;7.78;100.00
14273;BME280;7220;49.450;11.052;2023-12-14T17:04:57;98467.38;;;7.74;100.00
14273;BME280;7220;49.450;11.052;2023-12-14T17:08:59;98469.16;;;7.74;100.00
14273;BME280;7220;49.450;11.052;2023-12-14T17:12:59;98477.16;;;7.72;100.00
14273;BME280;7220;49.450;11.052;2023-12-14T17:17:00;98481.63;;;7.70;100.00
14273;BME280;7220;49.450;11.052;2023-12-14T17:21:00;98486.94;;;7.70;100.00
14273;BME280;7220;49.450;11.052;2023-12-14T17:25:00;98505.50;;;7.69;100.00
14273;BME280;7220;49.450;11.052;2023-12-14T17:29:01;98522.38;;;7.66;100.00
14273;BME280;7220;49.450;11.052;2023-12-14T17:33:06;98515.34;;;7.65;100.00
14273;BME280;7220;49.450;11.052;2023-12-14T17:37:07;98525.13;;;7.63;100.00
14273;BME280;7220;49.450;11.052;2023-12-14T17:41:09;98526.94;;;7.61;100.00
14273;BME280;7220;49.450;11.052;2023-12-14T17:45:10;98539.38;;;7.59;100.00
14273;BME280;7220;49.450;11.052;2023-12-14T17:49:10;98540.28;;;7.58;100.00
14273;BME280;7220;49.450;11.052;2023-12-14T17:53:11;98545.59;;;7.58;100.00
14273;BME280;7220;49.450;11.052;2023-12-14T17:57:11;98554.44;;;7.57;100.00
14273;BME280;7220;49.450;11.052;2023-12-14T18:01:12;98565.09;;;7.54;100.00
14273;BME280;7220;49.450;11.052;2023-12-14T18:05:12;98567.13;;;7.47;100.00
14273;BME280;7220;49.450;11.052;2023-12-14T18:09:13;98584.75;;;7.47;100.00
14273;BME280;7220;49.450;11.052;2023-12-14T18:13:13;98579.69;;;7.40;100.00
14273;BME280;7220;49.450;11.052;2023-12-14T18:17:14;98579.03;;;7.34;100.00
14273;BME280;7220;49.450;11.052;2023-12-14T18:21:14;98592.31;;;7.32;100.00
14273;BME280;7220;49.450;11.052;2023-12-14T18:25:15;98601.28;;;7.28;100.00
14273;BME280;7220;49.450;11.052;2023-12-14T18:29:17;98610.22;;;7.24;100.00
14273;BME280;7220;49.450;11.052;2023-12-14T18:33:17;98615.63;;;7.21;100.00
14273;BME280;7220;49.450;11.052;2023-12-14T18:37:18;98631.63;;;7.16;100.00
14273;BME280;7220;49.450;11.052;2023-12-14T18:41:18;98629.94;;;7.14;100.00
14273;BME280;7220;49.450;11.052;2023-12-14T18:45:19;98635.41;;;7.07;100.00
14273;BME280;7220;49.450;11.052;2023-12-14T18:49:19;98639.09;;;7.03;100.00
14273;BME280;7220;49.450;11.052;2023-12-14T18:53:20;98641.66;;;7.05;100.00
14273;BME280;7220;49.450;11.052;2023-12-14T18:57:20;98644.47;;;7.00;100.00
14273;BME280;7220;49.450;11.052;2023-12-14T19:01:20;98663.84;;;7.01;100.00
14273;BME280;7220;49.450;11.052;2023-12-14T19:05:21;98671.72;;;7.02;100.00
14273;BME280;7220;49.450;11.052;2023-12-14T19:09:24;98673.63;;;6.97;100.00
14273;BME280;7220;49.450;11.052;2023-12-14T19:13:24;98684.16;;;6.99;100.00
14273;BME280;7220;49.450;11.052;2023-12-14T19:17:24;98688.63;;;6.97;100.00
14273;BME280;7220;49.450;11.052;2023-12-14T19:21:25;98692.09;;;6.97;100.00
14273;BME280;7220;49.450;11.052;2023-12-14T19:25:26;98697.50;;;6.94;100.00
14273;BME280;7220;49.450;11.052;2023-12-14T19:29:26;98699.31;;;6.92;100.00
14273;BME280;7220;49.450;11.052;2023-12-14T19:33:27;98708.28;;;6.88;100.00
14273;BME280;7220;49.450;11.052;2023-12-14T19:37:27;98724.19;;;6.85;100.00
14273;BME280;7220;49.450;11.052;2023-12-14T19:41:27;98723.50;;;6.79;100.00
14273;BME280;7220;49.450;11.052;2023-12-14T19:45:28;98731.56;;;6.73;100.00
14273;BME280;7220;49.450;11.052;2023-12-14T19:49:28;98733.38;;;6.73;100.00
14273;BME280;7220;49.450;11.052;2023-12-14T19:53:29;98754.56;;;6.70;100.00
14273;BME280;7220;49.450;11.052;2023-12-14T19:57:30;98745.03;;;6.66;100.00
14273;BME280;7220;49.450;11.052;2023-12-14T20:01:32;98761.81;;;6.63;100.00
14273;BME280;7220;49.450;11.052;2023-12-14T20:05:32;98775.88;;;6.63;100.00
14273;BME280;7220;49.450;11.052;2023-12-14T20:09:36;98785.72;;;6.58;100.00
14273;BME280;7220;49.450;11.052;2023-12-14T20:13:36;98802.59;;;6.53;100.00
14273;BME280;7220;49.450;11.052;2023-12-14T20:17:36;98802.72;;;6.48;100.00
14273;BME280;7220;49.450;11.052;2023-12-14T20:21:37;98811.59;;;6.45;100.00
14273;BME280;7220;49.450;11.052;2023-12-14T20:25:38;98823.06;;;6.44;100.00
14273;BME280;7220;49.450;11.052;2023-12-14T20:29:38;98820.59;;;6.38;100.00
14273;BME280;7220;49.450;11.052;2023-12-14T20:33:39;98837.34;;;6.37;100.00
14273;BME280;7220;49.450;11.052;2023-12-14T20:37:41;98838.25;;;6.36;100.00
14273;BME280;7220;49.450;11.052;2023-12-14T20:41:41;98850.69;;;6.31;100.00
14273;BME280;7220;49.450;11.052;2023-12-14T20:45:42;98861.31;;;6.28;100.00
14273;BME280;7220;49.450;11.052;2023-12-14T20:49:42;98858.75;;;6.26;100.00
14273;BME280;7220;49.450;11.052;2023-12-14T20:53:42;98871.06;;;6.26;100.00
14273;BME280;7220;49.450;11.052;2023-12-14T20:57:43;98877.28;;;6.23;100.00
14273;BME280;7220;49.450;11.052;2023-12-14T21:01:44;98876.44;;;6.21;100.00
14273;BME280;7220;49.450;11.052;2023-12-14T21:05:44;98889.63;;;6.23;100.00
14273;BME280;7220;49.450;11.052;2023-12-14T21:09:45;98901.03;;;6.23;100.00
14273;BME280;7220;49.450;11.052;2023-12-14T21:13:45;98909.00;;;6.22;100.00
14273;BME280;7220;49.450;11.052;2023-12-14T21:17:46;98906.31;;;6.23;100.00